Brookview, New York
Current Conditions -  °F | °C
As of 8:51 PM on Monday 24 Nov 2014 (Local Time) from KALB Reporting Station
Few Clouds Few Clouds  
Wind Chill: 64°   Ceiling: Unl
Heat Index: 64°   Visibility: 10mi
Dew Point: 52°   Wind: 15mph
Humidity: 65%   Direction: 160°SSE
Pressure: 29.58"   Gusts: 22mph
Location:  42.5405°N, 73.7021°W
Report Text: KALB 250151Z 16013G19KT 10SM FEW070 18/11 A2958 RMK AO2 SLP016 T01780111
Loading
Personal Weather Stations






























Interactive Weather Map New forecast layout! Learn more

10-Day Weather Forecast

Advertisements
Track Severe Weather on mobile